Terminal Aerodrome Forecast
Issued by NWS Billings, MT

Home | Current Version | Previous Version | Graphics & Text | Print | Product List | Glossary On
Versions: 1 2 3 4 5 6 7 8 9 10 11 12
000
FTUS45 KBYZ 181737
TAFMLS
TAF
KMLS 181737Z 1818/1918 15008KT P6SM BKN200
     FM190900 34006KT P6SM BKN150
     FM191500 23006KT P6SM VCSH BKN060=

USA.gov is the U.S. government's official web portal to all federal, state and local government web resources and services.